createdAt,value
2022-08-09T00:01:05.488Z,19.11
2022-08-09T00:04:05.873Z,19.22
2022-08-09T00:06:24.031Z,19.10
2022-08-09T00:08:52.048Z,19.10
2022-08-09T00:11:24.963Z,18.93
2022-08-09T00:13:52.009Z,18.82
2022-08-09T00:16:26.546Z,18.80
2022-08-09T00:19:09.445Z,18.84
2022-08-09T00:21:38.203Z,18.89
2022-08-09T00:24:22.181Z,18.86
2022-08-09T00:26:50.619Z,18.85
2022-08-09T00:29:39.664Z,18.80
2022-08-09T00:32:03.841Z,18.63
2022-08-09T00:34:32.579Z,18.72
2022-08-09T00:37:00.629Z,18.73
2022-08-09T00:40:13.899Z,18.57
2022-08-09T00:44:16.636Z,18.58
2022-08-09T00:45:00.009Z,18.53
2022-08-09T00:47:33.133Z,18.50
2022-08-09T00:50:02.821Z,18.48
2022-08-09T00:52:31.113Z,18.48
2022-08-09T00:55:01.935Z,18.37
2022-08-09T00:57:33.783Z,18.33
2022-08-09T01:00:02.853Z,18.33
2022-08-09T01:02:32.728Z,18.38
2022-08-09T01:05:14.009Z,18.38
2022-08-09T01:08:19.456Z,18.47
2022-08-09T01:11:17.928Z,18.52
2022-08-09T01:13:58.567Z,18.52
2022-08-09T01:16:32.252Z,18.47
2022-08-09T01:19:04.945Z,18.46
2022-08-09T01:21:53.561Z,18.43
2022-08-09T01:24:39.478Z,18.43
2022-08-09T01:27:13.319Z,18.31
2022-08-09T01:29:56.433Z,18.35
2022-08-09T01:32:34.712Z,18.36
2022-08-09T01:35:28.407Z,18.30
2022-08-09T01:38:10.095Z,18.20
2022-08-09T01:40:44.988Z,18.21
2022-08-09T01:43:20.962Z,18.19
2022-08-09T01:45:53.037Z,18.07
2022-08-09T01:48:29.590Z,18.03
2022-08-09T01:50:59.416Z,18.07
2022-08-09T01:53:28.870Z,17.99
2022-08-09T01:55:57.017Z,17.97
2022-08-09T01:58:25.632Z,17.88
2022-08-09T02:00:57.911Z,17.77
2022-08-09T02:03:25.457Z,17.85
2022-08-09T02:06:06.418Z,17.70
2022-08-09T02:08:57.546Z,17.66
2022-08-09T02:11:42.725Z,17.64
2022-08-09T02:14:15.799Z,17.61
2022-08-09T02:17:05.017Z,17.55
2022-08-09T02:19:43.099Z,17.57
2022-08-09T02:22:35.701Z,17.56
2022-08-09T02:25:07.068Z,17.58
2022-08-09T02:27:58.293Z,17.53
2022-08-09T02:30:26.556Z,17.43
2022-08-09T02:32:54.986Z,17.35
2022-08-09T02:36:02.099Z,17.31
2022-08-09T02:38:27.937Z,17.30
2022-08-09T02:41:01.810Z,17.39
2022-08-09T02:43:53.772Z,17.50
2022-08-09T02:46:18.845Z,17.44
2022-08-09T02:48:47.297Z,17.42
2022-08-09T02:51:20.206Z,17.39
2022-08-09T02:54:00.417Z,17.23
2022-08-09T02:56:30.297Z,17.21
2022-08-09T02:58:57.815Z,17.26
2022-08-09T03:01:29.386Z,17.23
2022-08-09T03:04:17.660Z,17.23
2022-08-09T03:06:48.782Z,17.03
2022-08-09T03:09:16.403Z,17.04
2022-08-09T03:12:09.897Z,17.19
2022-08-09T03:14:31.877Z,17.23
2022-08-09T03:17:01.843Z,17.08
2022-08-09T03:19:59.617Z,17.10
2022-08-09T03:22:24.932Z,17.11
2022-08-09T03:25:21.898Z,17.04
2022-08-09T03:27:52.244Z,17.04
2022-08-09T03:30:30.196Z,17.00
2022-08-09T03:33:05.798Z,17.00
2022-08-09T03:35:44.301Z,16.97
2022-08-09T03:38:30.661Z,16.82
2022-08-09T03:40:58.025Z,16.61
2022-08-09T03:43:25.243Z,16.62
2022-08-09T03:46:04.882Z,16.75
2022-08-09T03:48:51.777Z,16.82
2022-08-09T03:51:54.124Z,16.69
2022-08-09T03:54:11.062Z,16.55
2022-08-09T03:56:41.266Z,16.50
2022-08-09T03:59:17.089Z,16.63
2022-08-09T04:01:50.477Z,16.62
2022-08-09T04:04:17.351Z,16.60
2022-08-09T04:06:49.211Z,16.61
2022-08-09T04:09:48.152Z,16.52
2022-08-09T04:12:11.992Z,16.53
2022-08-09T04:15:01.830Z,16.65
2022-08-09T04:17:37.687Z,16.68
2022-08-09T04:20:07.099Z,16.63
2022-08-09T04:22:34.160Z,16.69
2022-08-09T04:25:03.066Z,16.71
2022-08-09T04:27:30.479Z,16.81
2022-08-09T04:29:59.664Z,16.83
2022-08-09T04:32:33.824Z,16.87
2022-08-09T04:35:04.639Z,16.94
2022-08-09T04:37:45.713Z,16.96
2022-08-09T04:40:28.654Z,16.96
2022-08-09T04:43:00.870Z,16.85
2022-08-09T04:45:30.580Z,16.95
2022-08-09T04:48:02.085Z,16.84
2022-08-09T04:50:35.125Z,16.76
2022-08-09T04:53:11.499Z,16.67
2022-08-09T04:55:42.168Z,16.64
2022-08-09T04:58:29.947Z,16.64
2022-08-09T05:01:00.585Z,16.69
2022-08-09T05:03:41.201Z,16.51
2022-08-09T05:06:26.809Z,16.63
2022-08-09T05:09:00.224Z,16.68
2022-08-09T05:11:30.463Z,16.75
2022-08-09T05:13:58.725Z,16.75
2022-08-09T05:16:31.456Z,16.70
2022-08-09T05:18:59.840Z,16.70
2022-08-09T05:21:30.046Z,16.60
2022-08-09T05:24:04.047Z,16.61
2022-08-09T05:26:36.714Z,16.75
2022-08-09T05:29:04.482Z,16.73
2022-08-09T05:31:44.207Z,16.87
2022-08-09T05:34:16.970Z,16.93
2022-08-09T05:36:44.233Z,17.05
2022-08-09T05:39:28.283Z,17.05
2022-08-09T05:41:55.310Z,17.18
2022-08-09T05:44:22.243Z,17.29
2022-08-09T05:46:55.631Z,17.41
2022-08-09T05:50:31.068Z,17.48
2022-08-09T05:52:09.960Z,17.61
2022-08-09T05:54:36.959Z,17.71
2022-08-09T05:57:06.383Z,17.82
2022-08-09T05:59:33.003Z,17.91
2022-08-09T06:01:59.989Z,18.05
2022-08-09T06:04:35.060Z,18.07
2022-08-09T06:07:02.212Z,18.15
2022-08-09T06:10:01.701Z,18.23
2022-08-09T06:12:15.102Z,18.34
2022-08-09T06:14:43.637Z,18.40
2022-08-09T06:17:10.361Z,18.41
2022-08-09T06:19:37.019Z,18.47
2022-08-09T06:22:04.801Z,18.53
2022-08-09T06:24:31.292Z,18.60
2022-08-09T06:26:58.072Z,18.66
2022-08-09T06:29:26.879Z,18.74
2022-08-09T06:32:08.515Z,18.79
2022-08-09T06:34:40.188Z,18.86
2022-08-09T06:37:10.120Z,18.93
2022-08-09T06:39:48.181Z,18.96
2022-08-09T06:42:24.955Z,19.04
2022-08-09T06:44:57.369Z,19.09
2022-08-09T06:47:24.122Z,19.10
2022-08-09T06:50:14.754Z,19.14
2022-08-09T06:52:45.860Z,19.21
2022-08-09T06:55:15.487Z,19.31
2022-08-09T06:58:02.570Z,19.39
2022-08-09T07:00:54.523Z,19.36
2022-08-09T07:03:16.383Z,19.43
2022-08-09T07:05:58.199Z,19.44
2022-08-09T07:08:30.609Z,19.57
2022-08-09T07:10:57.243Z,19.61
2022-08-09T07:13:29.564Z,19.71
2022-08-09T07:16:41.866Z,19.79
2022-08-09T07:18:44.098Z,19.84
2022-08-09T07:21:14.130Z,19.92
2022-08-09T07:23:56.541Z,20.02
2022-08-09T07:26:25.091Z,20.03
2022-08-09T07:29:09.070Z,20.08
2022-08-09T07:31:45.420Z,20.17
2022-08-09T07:34:20.325Z,20.27
2022-08-09T07:36:48.293Z,20.35
2022-08-09T07:39:20.396Z,20.41
2022-08-09T07:42:02.535Z,20.49
2022-08-09T07:44:32.964Z,20.59
2022-08-09T07:47:16.256Z,20.65
2022-08-09T07:50:04.473Z,20.68
2022-08-09T07:52:29.779Z,20.78
2022-08-09T07:54:56.690Z,20.79
2022-08-09T07:57:24.033Z,20.86
2022-08-09T08:00:02.766Z,20.93
2022-08-09T08:02:42.452Z,20.96
2022-08-09T08:05:19.023Z,21.06
2022-08-09T08:08:43.437Z,21.15
2022-08-09T08:10:34.417Z,21.20
2022-08-09T08:13:01.241Z,21.35
2022-08-09T08:15:30.782Z,21.40
2022-08-09T08:18:02.078Z,21.58
2022-08-09T08:20:32.768Z,21.60
2022-08-09T08:23:06.630Z,21.68
2022-08-09T08:25:48.275Z,21.77
2022-08-09T08:28:18.060Z,21.80
2022-08-09T08:30:52.920Z,21.90
2022-08-09T08:33:23.088Z,22.05
2022-08-09T08:35:59.531Z,22.16
2022-08-09T08:38:28.843Z,22.17
2022-08-09T08:40:56.773Z,22.26
2022-08-09T08:43:24.587Z,22.39
2022-08-09T08:46:04.036Z,22.45
2022-08-09T08:48:51.540Z,22.57
2022-08-09T08:51:21.033Z,22.58
2022-08-09T08:54:03.639Z,22.65
2022-08-09T08:56:35.287Z,22.78
2022-08-09T08:59:08.001Z,22.89
2022-08-09T09:01:52.291Z,22.92
2022-08-09T09:04:31.092Z,22.95
2022-08-09T09:07:08.398Z,23.06
2022-08-09T09:09:57.900Z,23.26
2022-08-09T09:12:29.132Z,23.30
2022-08-09T09:14:59.589Z,23.27
2022-08-09T09:17:41.109Z,23.38
2022-08-09T09:20:15.386Z,23.49
2022-08-09T09:23:01.637Z,23.57
2022-08-09T09:26:01.911Z,23.66
2022-08-09T09:29:02.905Z,23.72
2022-08-09T09:32:06.987Z,23.89
2022-08-09T09:34:18.037Z,23.99
2022-08-09T09:36:51.031Z,24.07
2022-08-09T09:39:23.333Z,24.12
2022-08-09T09:41:50.989Z,24.40
2022-08-09T09:44:35.322Z,24.51
2022-08-09T09:47:09.285Z,24.67
2022-08-09T09:50:07.035Z,24.78
2022-08-09T09:52:37.167Z,24.87
2022-08-09T09:55:28.307Z,24.95
2022-08-09T09:58:19.339Z,25.08
2022-08-09T10:00:55.482Z,25.18
2022-08-09T10:03:56.281Z,25.29
2022-08-09T10:06:32.265Z,25.28
2022-08-09T10:09:11.903Z,25.33
2022-08-09T10:12:00.558Z,25.46
2022-08-09T10:14:35.144Z,25.56
2022-08-09T10:17:24.089Z,25.66
2022-08-09T10:19:59.940Z,25.78
2022-08-09T10:22:33.069Z,25.97
2022-08-09T10:25:03.449Z,26.09
2022-08-09T10:27:55.880Z,26.27
2022-08-09T10:34:07.655Z,26.53
2022-08-09T10:36:00.966Z,26.62
2022-08-09T10:38:54.390Z,26.71
2022-08-09T10:41:17.796Z,26.83
2022-08-09T10:44:01.183Z,26.88
2022-08-09T10:46:47.601Z,27.03
2022-08-09T10:49:49.996Z,27.07
2022-08-09T10:52:27.547Z,27.17
2022-08-09T10:54:55.267Z,27.26
2022-08-09T10:57:23.454Z,27.40
2022-08-09T10:59:58.012Z,27.42
2022-08-09T11:03:13.711Z,27.49
2022-08-09T11:05:30.223Z,27.57
2022-08-09T11:08:35.743Z,27.62
2022-08-09T11:11:10.487Z,27.68
2022-08-09T11:13:50.339Z,27.77
2022-08-09T11:16:35.714Z,27.80
2022-08-09T11:19:10.725Z,27.86
2022-08-09T11:21:57.417Z,27.92
2022-08-09T11:24:57.875Z,27.93
2022-08-09T11:28:04.332Z,28.00
2022-08-09T11:30:33.826Z,28.08
2022-08-09T11:33:09.718Z,28.10
2022-08-09T11:35:49.443Z,28.14
2022-08-09T11:38:34.262Z,28.20
2022-08-09T11:41:38.526Z,28.12
2022-08-09T11:44:08.208Z,28.24
2022-08-09T11:46:57.172Z,28.34
2022-08-09T11:50:55.104Z,28.42
2022-08-09T11:53:59.695Z,28.62
2022-08-09T11:55:52.397Z,28.54
2022-08-09T11:58:32.738Z,28.61
2022-08-09T12:01:08.898Z,28.66
2022-08-09T12:03:57.311Z,28.73
2022-08-09T12:06:32.668Z,28.74
2022-08-09T12:09:05.664Z,28.80
2022-08-09T12:11:44.622Z,28.78
2022-08-09T12:14:28.777Z,28.78
2022-08-09T12:17:28.348Z,28.78
2022-08-09T12:19:59.768Z,28.87
2022-08-09T12:22:27.755Z,28.86
2022-08-09T12:25:16.541Z,28.96
2022-08-09T12:29:11.081Z,29.04
2022-08-09T12:30:36.912Z,29.04
2022-08-09T12:33:07.342Z,29.02
2022-08-09T12:35:40.960Z,29.00
2022-08-09T12:38:37.299Z,29.08
2022-08-09T12:41:05.430Z,28.96
2022-08-09T12:44:06.041Z,29.14
2022-08-09T12:46:22.774Z,29.11
2022-08-09T12:48:52.112Z,29.19
2022-08-09T12:51:52.702Z,29.22
2022-08-09T12:54:08.389Z,29.35
2022-08-09T12:56:50.953Z,29.26
2022-08-09T12:59:24.047Z,29.26
2022-08-09T13:01:59.591Z,29.33
2022-08-09T13:04:35.880Z,29.27
2022-08-09T13:07:16.201Z,29.26
2022-08-09T13:09:52.874Z,29.16
2022-08-09T13:12:26.708Z,29.26
2022-08-09T13:15:04.479Z,29.17
2022-08-09T13:18:02.703Z,29.10
2022-08-09T13:20:37.194Z,29.04
2022-08-09T13:24:15.905Z,28.93
2022-08-09T13:26:03.392Z,28.87
2022-08-09T13:28:34.326Z,28.79
2022-08-09T13:32:13.653Z,28.83
2022-08-09T13:33:54.808Z,28.90
2022-08-09T13:36:38.819Z,28.90
2022-08-09T13:41:52.251Z,28.72
2022-08-09T13:42:12.988Z,28.72
2022-08-09T13:44:41.991Z,28.81
2022-08-09T13:47:26.989Z,28.79
2022-08-09T13:50:08.703Z,28.79
2022-08-09T13:52:39.943Z,28.74
2022-08-09T13:55:13.478Z,28.76
2022-08-09T13:57:56.291Z,28.79
2022-08-09T14:00:27.261Z,28.78
2022-08-09T14:03:04.330Z,28.74
2022-08-09T14:05:58.212Z,28.68
2022-08-09T14:08:28.335Z,28.74
2022-08-09T14:10:55.261Z,28.62
2022-08-09T14:13:28.267Z,28.56
2022-08-09T14:16:16.174Z,28.42
2022-08-09T14:18:49.471Z,28.44
2022-08-09T14:21:22.299Z,28.38
2022-08-09T14:23:54.857Z,28.33
2022-08-09T14:26:31.491Z,28.34
2022-08-09T14:29:00.822Z,28.29
2022-08-09T14:31:36.092Z,28.23
2022-08-09T14:34:17.423Z,28.19
2022-08-09T14:36:45.045Z,28.17
2022-08-09T14:39:12.037Z,28.09
2022-08-09T14:41:40.174Z,28.01
2022-08-09T14:44:11.173Z,27.95
2022-08-09T14:47:04.824Z,27.82
2022-08-09T14:49:26.774Z,27.72
2022-08-09T14:51:59.045Z,27.61
2022-08-09T14:54:27.666Z,27.60
2022-08-09T14:56:57.597Z,27.55
2022-08-09T14:59:26.944Z,27.48
2022-08-09T15:01:54.247Z,27.44
2022-08-09T15:04:23.328Z,27.38
2022-08-09T15:06:51.349Z,27.33
2022-08-09T15:10:03.602Z,27.28
2022-08-09T15:12:08.147Z,27.21
2022-08-09T15:14:38.774Z,27.15
2022-08-09T15:17:09.709Z,27.09
2022-08-09T15:19:59.620Z,27.07
2022-08-09T15:22:26.141Z,27.05
2022-08-09T15:24:53.812Z,27.01
2022-08-09T15:27:21.057Z,26.97
2022-08-09T15:30:56.876Z,26.95
2022-08-09T15:32:35.041Z,26.91
2022-08-09T15:35:01.831Z,26.91
2022-08-09T15:37:56.845Z,26.86
2022-08-09T15:40:33.676Z,26.84
2022-08-09T15:43:00.528Z,26.81
2022-08-09T15:45:29.705Z,26.78
2022-08-09T15:48:05.258Z,26.79
2022-08-09T15:50:39.238Z,26.82
2022-08-09T15:53:17.830Z,26.86
2022-08-09T15:56:21.052Z,26.84
2022-08-09T15:58:43.004Z,26.81
2022-08-09T16:01:09.498Z,26.76
2022-08-09T16:03:38.576Z,26.75
2022-08-09T16:06:27.299Z,26.71
2022-08-09T16:08:55.945Z,26.68
2022-08-09T16:11:22.415Z,26.68
2022-08-09T16:14:02.961Z,26.66
2022-08-09T16:16:34.778Z,26.62
2022-08-09T16:19:04.776Z,26.67
2022-08-09T16:21:35.095Z,26.65
2022-08-09T16:24:03.044Z,26.65
2022-08-09T16:26:34.594Z,26.65
2022-08-09T16:29:12.870Z,26.64
2022-08-09T16:32:19.577Z,26.59
2022-08-09T16:34:56.417Z,26.60
2022-08-09T16:37:53.982Z,26.60
2022-08-09T16:40:11.907Z,26.56
2022-08-09T16:42:45.563Z,26.52
2022-08-09T16:45:19.505Z,26.49
2022-08-09T16:48:39.804Z,26.48
2022-08-09T16:50:34.860Z,26.41
2022-08-09T16:53:05.751Z,26.37
2022-08-09T16:55:57.862Z,26.36
2022-08-09T16:58:19.473Z,26.36
2022-08-09T17:00:48.284Z,26.37
2022-08-09T17:03:21.443Z,26.30
2022-08-09T17:06:06.853Z,26.29
2022-08-09T17:08:45.794Z,26.27
2022-08-09T17:11:24.363Z,26.24
2022-08-09T17:14:01.639Z,26.25
2022-08-09T17:16:28.665Z,26.22
2022-08-09T17:18:55.252Z,26.20
2022-08-09T17:21:21.829Z,26.15
2022-08-09T17:24:27.017Z,26.13
2022-08-09T17:26:53.844Z,26.14
2022-08-09T17:29:21.020Z,26.11
2022-08-09T17:31:49.251Z,26.08
2022-08-09T17:35:02.026Z,26.05
2022-08-09T17:37:03.685Z,26.04
2022-08-09T17:39:52.066Z,26.01
2022-08-09T17:42:41.505Z,25.99
2022-08-09T17:45:06.590Z,25.94
2022-08-09T17:47:49.969Z,25.96
2022-08-09T17:50:36.326Z,25.96
2022-08-09T17:53:19.471Z,25.96
2022-08-09T17:55:51.262Z,25.98
2022-08-09T17:58:24.185Z,25.99
2022-08-09T18:00:54.911Z,26.00
2022-08-09T18:03:23.802Z,26.00
2022-08-09T18:05:53.250Z,25.94
2022-08-09T18:08:22.240Z,25.94
2022-08-09T18:11:00.639Z,25.92
2022-08-09T18:13:40.764Z,25.84
2022-08-09T18:16:14.712Z,25.80
2022-08-09T18:18:49.055Z,25.79
2022-08-09T18:21:21.399Z,25.75
2022-08-09T18:24:10.808Z,25.69
2022-08-09T18:26:38.396Z,25.65
2022-08-09T18:30:42.913Z,25.59
2022-08-09T18:32:03.371Z,25.51
2022-08-09T18:34:34.810Z,25.49
2022-08-09T18:37:02.423Z,25.49
2022-08-09T18:39:32.124Z,25.46
2022-08-09T18:42:05.283Z,25.43
2022-08-09T18:44:35.107Z,25.40
2022-08-09T18:47:07.365Z,25.38
2022-08-09T18:49:41.718Z,25.35
2022-08-09T18:52:13.185Z,25.32
2022-08-09T18:54:42.010Z,25.30
2022-08-09T18:57:16.396Z,25.22
2022-08-09T18:59:51.117Z,25.21
2022-08-09T19:02:20.068Z,25.18
2022-08-09T19:05:04.371Z,25.17
2022-08-09T19:07:34.131Z,25.15
2022-08-09T19:10:14.533Z,25.13
2022-08-09T19:12:45.502Z,25.07
2022-08-09T19:15:17.966Z,25.05
2022-08-09T19:17:54.529Z,25.02
2022-08-09T19:20:23.234Z,24.96
2022-08-09T19:22:54.704Z,24.91
2022-08-09T19:25:41.255Z,24.92
2022-08-09T19:28:13.188Z,24.81
2022-08-09T19:30:44.415Z,24.75
2022-08-09T19:33:19.489Z,24.75
2022-08-09T19:35:56.820Z,24.67
2022-08-09T19:38:25.509Z,24.59
2022-08-09T19:40:52.897Z,24.48
2022-08-09T19:43:57.821Z,24.37
2022-08-09T19:46:08.433Z,24.30
2022-08-09T19:49:01.477Z,24.20
2022-08-09T19:51:27.714Z,24.12
2022-08-09T19:54:01.167Z,24.01
2022-08-09T19:56:29.556Z,23.94
2022-08-09T19:59:39.815Z,23.93
2022-08-09T20:01:52.305Z,23.84
2022-08-09T20:04:37.342Z,23.74
2022-08-09T20:07:12.358Z,23.63
2022-08-09T20:09:47.651Z,23.63
2022-08-09T20:12:29.864Z,23.57
2022-08-09T20:15:02.078Z,23.52
2022-08-09T20:17:48.107Z,23.46
2022-08-09T20:20:15.680Z,23.37
2022-08-09T20:22:46.463Z,23.33
2022-08-09T20:25:13.121Z,23.30
2022-08-09T20:27:49.028Z,23.25
2022-08-09T20:30:17.895Z,23.19
2022-08-09T20:32:48.206Z,23.25
2022-08-09T20:35:18.604Z,23.20
2022-08-09T20:38:20.584Z,23.00
2022-08-09T20:40:31.621Z,23.04
2022-08-09T20:43:00.421Z,23.04
2022-08-09T20:45:59.462Z,22.99
2022-08-09T20:48:31.933Z,22.84
2022-08-09T20:51:00.276Z,22.87
2022-08-09T20:53:36.178Z,22.84
2022-08-09T20:56:08.872Z,22.81
2022-08-09T20:58:35.847Z,22.77
2022-08-09T21:01:32.554Z,22.68
2022-08-09T21:05:48.342Z,22.62
2022-08-09T21:06:41.444Z,22.55
2022-08-09T21:09:13.607Z,22.52
2022-08-09T21:14:27.521Z,22.59
2022-08-09T21:16:57.884Z,22.49
2022-08-09T21:20:18.639Z,22.44
2022-08-09T21:22:36.009Z,22.52
2022-08-09T21:25:17.531Z,22.44
2022-08-09T21:27:52.157Z,22.37
2022-08-09T21:30:22.257Z,22.31
2022-08-09T21:32:49.297Z,22.24
2022-08-09T21:35:16.516Z,22.30
2022-08-09T21:37:58.641Z,22.30
2022-08-09T21:40:30.582Z,22.29
2022-08-09T21:43:00.006Z,22.24
2022-08-09T21:45:27.823Z,22.16
2022-08-09T21:47:54.321Z,22.12
2022-08-09T21:50:35.824Z,22.07
2022-08-09T21:53:06.942Z,22.04
2022-08-09T21:55:50.410Z,22.01
2022-08-09T21:58:16.894Z,21.94
2022-08-09T22:00:43.579Z,21.95
2022-08-09T22:03:25.313Z,22.00
2022-08-09T22:05:53.141Z,21.83
2022-08-09T22:08:24.744Z,21.89
2022-08-09T22:11:00.809Z,21.84
2022-08-09T22:13:42.217Z,21.80
2022-08-09T22:16:10.541Z,21.67
2022-08-09T22:18:52.947Z,21.81
2022-08-09T22:21:44.851Z,21.73
2022-08-09T22:24:17.216Z,21.71
2022-08-09T22:26:51.129Z,21.64
2022-08-09T22:29:19.305Z,21.64
2022-08-09T22:31:57.084Z,21.61
2022-08-09T22:34:28.060Z,21.59
2022-08-09T22:36:56.490Z,21.51
2022-08-09T22:39:55.544Z,21.50
2022-08-09T22:42:21.237Z,21.46
2022-08-09T22:45:00.278Z,21.44
2022-08-09T22:48:11.470Z,21.49
2022-08-09T22:50:23.144Z,21.46
2022-08-09T22:52:54.907Z,21.49
2022-08-09T22:55:29.638Z,21.36
2022-08-09T22:58:06.178Z,21.33
2022-08-09T23:00:32.634Z,21.25
2022-08-09T23:02:59.457Z,21.28
2022-08-09T23:05:25.994Z,21.21
2022-08-09T23:08:21.910Z,21.27
2022-08-09T23:10:55.881Z,21.20
2022-08-09T23:13:22.296Z,21.10
2022-08-09T23:16:02.158Z,21.12
2022-08-09T23:18:30.569Z,21.16
2022-08-09T23:20:57.098Z,21.04
2022-08-09T23:23:23.565Z,21.05
2022-08-09T23:25:50.103Z,21.09
2022-08-09T23:28:16.591Z,21.05
2022-08-09T23:30:50.875Z,21.00
2022-08-09T23:33:19.372Z,21.02
2022-08-09T23:36:04.392Z,20.96
2022-08-09T23:38:32.216Z,20.98
2022-08-09T23:40:58.751Z,20.96
2022-08-09T23:43:25.188Z,20.92
2022-08-09T23:45:51.656Z,20.86
2022-08-09T23:48:19.481Z,20.68
2022-08-09T23:50:45.970Z,20.68
2022-08-09T23:53:12.604Z,20.74
2022-08-09T23:55:39.155Z,20.59
2022-08-09T23:58:24.274Z,20.59
